createdAt,value
2023-05-06T00:05:47.375Z,10.71
2023-05-06T00:15:52.907Z,10.60
2023-05-06T00:25:59.502Z,10.42
2023-05-06T00:36:06.467Z,10.34
2023-05-06T00:46:13.095Z,10.21
2023-05-06T00:56:20.907Z,10.18
2023-05-06T01:06:29.096Z,10.03
2023-05-06T01:16:37.920Z,9.90
2023-05-06T01:26:45.386Z,9.71
2023-05-06T01:37:16.243Z,9.55
2023-05-06T01:47:22.879Z,9.52
2023-05-06T01:57:30.291Z,9.51
2023-05-06T02:07:37.070Z,9.39
2023-05-06T02:17:44.692Z,9.34
2023-05-06T02:27:51.336Z,9.05
2023-05-06T02:37:57.776Z,9.01
2023-05-06T02:48:04.438Z,8.93
2023-05-06T02:58:10.987Z,8.77
2023-05-06T03:08:17.611Z,8.68
2023-05-06T03:18:24.168Z,8.63
2023-05-06T03:28:30.685Z,8.58
2023-05-06T03:38:37.192Z,8.63
2023-05-06T03:48:43.698Z,8.63
2023-05-06T03:58:50.378Z,8.68
2023-05-06T04:08:57.016Z,8.85
2023-05-06T04:19:06.457Z,8.99
2023-05-06T04:29:13.190Z,9.17
2023-05-06T04:39:19.737Z,9.37
2023-05-06T04:49:26.245Z,9.36
2023-05-06T04:59:32.761Z,9.49
2023-05-06T05:09:39.309Z,9.51
2023-05-06T05:19:45.817Z,9.65
2023-05-06T05:29:52.304Z,9.99
2023-05-06T05:39:58.919Z,10.33
2023-05-06T05:50:05.796Z,10.75
2023-05-06T06:00:13.546Z,10.94
2023-05-06T06:10:20.364Z,11.68
2023-05-06T06:20:26.918Z,11.88
2023-05-06T06:30:33.389Z,12.40
2023-05-06T06:40:39.900Z,12.45
2023-05-06T06:50:46.665Z,13.14
2023-05-06T07:00:53.690Z,13.11
2023-05-06T07:11:00.192Z,13.08
2023-05-06T07:21:06.723Z,13.64
2023-05-06T07:31:13.364Z,13.64
2023-05-06T07:41:19.987Z,14.21
2023-05-06T07:51:26.570Z,13.88
2023-05-06T08:01:33.103Z,13.82
2023-05-06T08:11:40.285Z,14.11
2023-05-06T08:21:46.745Z,14.19
2023-05-06T08:31:53.331Z,14.46
2023-05-06T08:42:01.069Z,14.37
2023-05-06T08:52:08.048Z,14.99
2023-05-06T09:02:14.679Z,14.93
2023-05-06T09:12:21.169Z,14.85
2023-05-06T09:22:29.205Z,15.34
2023-05-06T09:32:39.121Z,15.18
2023-05-06T09:42:46.768Z,14.79
2023-05-06T09:52:53.833Z,14.13
2023-05-06T10:03:00.611Z,13.87
2023-05-06T10:13:07.487Z,13.19
2023-05-06T10:23:28.227Z,12.99
2023-05-06T10:33:35.333Z,12.96
2023-05-06T10:43:44.000Z,12.55
2023-05-06T10:54:09.983Z,12.40
2023-05-06T11:04:19.320Z,12.45
2023-05-06T11:14:40.925Z,12.33
2023-05-06T11:24:47.409Z,12.18
2023-05-06T11:34:57.334Z,12.25
2023-05-06T11:45:03.885Z,12.33
2023-05-06T11:55:11.462Z,12.14
2023-05-06T12:05:17.946Z,12.11
2023-05-06T12:15:24.548Z,12.21
2023-05-06T12:25:31.052Z,12.12
2023-05-06T12:35:37.538Z,12.05
2023-05-06T12:45:44.164Z,12.02
2023-05-06T12:55:50.661Z,12.21
2023-05-06T13:05:57.169Z,12.53
2023-05-06T13:16:04.088Z,12.85
2023-05-06T13:26:10.564Z,13.16
2023-05-06T13:36:17.199Z,13.57
2023-05-06T13:46:24.556Z,13.55
2023-05-06T13:56:31.153Z,14.04
2023-05-06T14:06:37.662Z,14.73
2023-05-06T14:16:44.202Z,14.95
2023-05-06T14:26:50.796Z,15.46
2023-05-06T14:36:57.366Z,15.80
2023-05-06T14:47:04.058Z,15.91
2023-05-06T14:57:11.068Z,16.31
2023-05-06T15:07:17.981Z,16.29
2023-05-06T15:17:24.519Z,16.12
2023-05-06T15:27:32.103Z,16.09
2023-05-06T15:37:38.594Z,16.32
2023-05-06T15:47:45.159Z,16.00
2023-05-06T15:57:52.371Z,16.05
2023-05-06T16:07:58.991Z,16.22
2023-05-06T16:18:05.635Z,15.66
2023-05-06T16:28:12.452Z,15.57
2023-05-06T16:38:19.033Z,15.23
2023-05-06T16:48:25.737Z,15.17
2023-05-06T16:58:32.366Z,15.11
2023-05-06T17:08:38.946Z,14.78
2023-05-06T17:18:47.449Z,14.68
2023-05-06T17:28:54.000Z,14.33
2023-05-06T17:39:06.800Z,14.06
2023-05-06T17:49:13.383Z,13.95
2023-05-06T17:59:23.124Z,13.80
2023-05-06T18:09:29.695Z,13.45
2023-05-06T18:19:35.255Z,13.14
2023-05-06T18:29:42.634Z,12.82
2023-05-06T18:39:49.216Z,12.57
2023-05-06T18:49:56.163Z,12.42
2023-05-06T19:00:02.674Z,12.13
2023-05-06T19:10:09.683Z,12.00
2023-05-06T19:20:16.318Z,11.90
2023-05-06T19:30:22.951Z,11.77
2023-05-06T19:40:30.343Z,11.76
2023-05-06T19:50:36.939Z,11.78
2023-05-06T20:00:43.470Z,11.89
2023-05-06T20:10:50.106Z,11.92
2023-05-06T20:20:57.693Z,12.05
2023-05-06T20:31:04.165Z,12.04
2023-05-06T20:41:11.321Z,12.03
2023-05-06T20:51:17.897Z,12.02
2023-05-06T21:01:25.605Z,11.83
2023-05-06T21:11:32.246Z,11.79
2023-05-06T21:21:38.831Z,11.67
2023-05-06T21:31:45.329Z,11.64
2023-05-06T21:41:51.876Z,11.55
2023-05-06T21:51:58.338Z,11.50
2023-05-06T22:02:05.413Z,11.41
2023-05-06T22:12:14.479Z,11.31
2023-05-06T22:22:20.960Z,11.25
2023-05-06T22:32:27.688Z,11.15
2023-05-06T22:42:34.268Z,11.11
2023-05-06T22:52:41.030Z,10.99
2023-05-06T23:02:47.680Z,10.84
2023-05-06T23:12:54.254Z,10.94
2023-05-06T23:23:00.879Z,10.93
2023-05-06T23:33:08.300Z,10.98
2023-05-06T23:43:14.847Z,10.96
2023-05-06T23:53:21.863Z,11.02
